Time;durP1;ratioP1;P1;durP2;ratioP2;P2;SDS_P1;SDS_P2;PMS_P1;PMS_P2;Temp;Humidity;BMP_temperature;BMP_pressure;BME280_temperature;BME280_humidity;BME280_pressure;Samples;Min_cycle;Max_cycle;Signal;HPM_P1;HPM_P2
2023/05/22 00:01:37;;;;;;;7.05;2.85;;;;;;;12.45;54.01;100753.84;4975510;28;20498;-47
2023/05/22 00:04:04;;;;;;;5.63;2.53;;;;;;;12.43;54.98;100748.66;4970337;28;20057;-46
2023/05/22 00:06:32;;;;;;;6.07;3.08;;;;;;;12.44;54.14;100749.53;4976531;28;20517;-47
2023/05/22 00:08:59;;;;;;;6.32;2.65;;;;;;;12.42;55.19;100746.03;4976906;28;20042;-49
2023/05/22 00:11:26;;;;;;;9.65;3.08;;;;;;;12.41;54.60;100741.72;4979356;28;20399;-47
2023/05/22 00:13:53;;;;;;;6.60;3.08;;;;;;;12.40;54.62;100743.44;4976283;28;20825;-47
2023/05/22 00:16:19;;;;;;;7.15;2.75;;;;;;;12.43;54.49;100733.06;4973304;28;20066;-50
2023/05/22 00:18:47;;;;;;;8.05;2.70;;;;;;;12.42;55.02;100730.47;4975862;28;20046;-51
2023/05/22 00:21:13;;;;;;;7.05;2.70;;;;;;;12.38;55.16;100723.53;4976909;28;20188;-47
2023/05/22 00:23:40;;;;;;;7.60;3.33;;;;;;;12.39;56.10;100722.69;4976661;28;20105;-49
2023/05/22 00:26:06;;;;;;;8.05;3.28;;;;;;;12.35;56.75;100719.22;4976863;28;20125;-46
2023/05/22 00:28:33;;;;;;;7.80;3.80;;;;;;;12.32;56.69;100719.19;4977624;28;20050;-49
2023/05/22 00:31:00;;;;;;;8.75;3.22;;;;;;;12.33;56.94;100715.75;4968474;28;20410;-47
2023/05/22 00:33:26;;;;;;;6.82;3.03;;;;;;;12.34;56.96;100717.47;4972848;28;20058;-47
2023/05/22 00:35:53;;;;;;;11.40;3.83;;;;;;;12.33;57.02;100716.59;4976416;28;20050;-51
2023/05/22 00:38:31;;;;;;;10.10;3.80;;;;;;;12.31;56.71;100714.88;4975335;28;20046;-48
2023/05/22 00:40:59;;;;;;;9.77;3.53;;;;;;;12.33;56.36;100710.56;4954961;28;20521;-50
2023/05/22 00:43:26;;;;;;;12.73;4.70;;;;;;;12.32;56.40;100719.19;4976386;28;20062;-47
2023/05/22 00:45:53;;;;;;;10.90;4.07;;;;;;;12.32;57.62;100712.28;4979648;28;20054;-49
2023/05/22 00:48:21;;;;;;;10.80;3.80;;;;;;;12.33;56.96;100716.59;4980406;28;20046;-46
2023/05/22 00:50:49;;;;;;;6.68;2.92;;;;;;;12.35;56.55;100719.22;4977688;28;20105;-45
2023/05/22 00:53:19;;;;;;;8.60;4.18;;;;;;;12.34;56.96;100717.47;4979698;28;20134;-46
2023/05/22 00:55:46;;;;;;;;;;;;;;;12.21;57.73;100714.00;4979310;28;20494;-46
2023/05/22 00:58:15;;;;;;;9.98;4.55;;;;;;;12.31;57.29;100718.34;4980137;28;19921;-47
2023/05/22 01:00:42;;;;;;;12.95;4.25;;;;;;;12.33;58.27;100705.38;4980235;28;20438;-48
2023/05/22 01:03:09;;;;;;;9.35;3.58;;;;;;;12.32;57.58;100707.09;4983316;28;20046;-48
2023/05/22 01:05:38;;;;;;;10.30;3.42;;;;;;;12.32;58.17;100701.00;4974615;28;20059;-46
2023/05/22 01:08:06;;;;;;;9.52;3.95;;;;;;;12.32;58.25;100698.41;4976335;28;20051;-48
2023/05/22 01:10:35;;;;;;;9.85;3.83;;;;;;;12.29;58.41;100699.28;4980344;28;20562;-49
2023/05/22 01:15:50;;;;;;;10.02;5.10;;;;;;;12.31;58.29;100696.69;5032208;28;20403;-47
2023/05/22 01:18:30;;;;;;;10.70;5.75;;;;;;;12.27;59.45;100693.25;4985821;28;20134;-46
2023/05/22 01:21:09;;;;;;;11.82;5.13;;;;;;;12.28;58.98;100692.38;4988978;28;20046;-46
2023/05/22 01:31:41;;;;;;;10.75;3.00;;;;;;;12.23;59.82;100693.22;5005324;28;20443;-46
2023/05/22 01:34:11;;;;;;;7.00;2.78;;;;;;;12.18;59.01;100695.81;4998896;28;20066;-48
2023/05/22 01:36:39;;;;;;;8.38;4.78;;;;;;;12.13;59.94;100692.34;5001969;28;21751;-48
2023/05/22 01:39:07;;;;;;;11.15;5.18;;;;;;;12.09;59.69;100696.66;5000345;28;20590;-45
2023/05/22 01:41:34;;;;;;;8.63;3.30;;;;;;;12.04;59.47;100704.44;4992608;28;20054;-45
2023/05/22 01:44:01;;;;;;;11.77;3.90;;;;;;;12.01;59.45;100694.03;4999444;28;20050;-46
2023/05/22 01:46:29;;;;;;;6.60;2.92;;;;;;;12.01;59.73;100699.22;4999811;28;20054;-49
2023/05/22 01:48:56;;;;;;;7.68;3.15;;;;;;;11.97;59.58;100687.13;5010657;28;20057;-48
2023/05/22 01:57:16;;;;;;;8.27;4.28;;;;;;;11.94;59.18;100693.16;5044399;27;20395;-47
2023/05/22 01:59:51;;;;;;;6.93;2.80;;;;;;;11.92;60.60;100691.44;5001396;28;20442;-51
2023/05/22 02:02:19;;;;;;;9.10;4.32;;;;;;;11.93;59.49;100687.97;4998357;28;20052;-47
2023/05/22 02:04:54;;;;;;;8.45;3.80;;;;;;;11.91;60.33;100687.09;5000267;28;20053;-49
2023/05/22 02:07:23;;;;;;;9.02;3.85;;;;;;;11.91;59.10;100692.28;5002016;28;20053;-49
2023/05/22 02:09:52;;;;;;;8.32;3.08;;;;;;;11.87;59.13;100694.00;4996891;28;20418;-49
2023/05/22 02:12:20;;;;;;;7.30;3.97;;;;;;;11.86;59.07;100692.28;4995052;28;20050;-48
2023/05/22 02:14:47;;;;;;;11.07;4.90;;;;;;;11.86;58.85;100696.59;4994064;28;20125;-51
2023/05/22 02:17:14;;;;;;;9.23;4.22;;;;;;;11.82;59.52;100688.81;4998274;28;20069;-47
2023/05/22 02:19:40;;;;;;;8.55;3.63;;;;;;;11.81;60.08;100701.78;5017522;28;20053;-47
2023/05/22 02:22:08;;;;;;;8.05;4.30;;;;;;;11.79;60.04;100693.13;5012306;28;20049;-50
2023/05/22 02:24:35;;;;;;;10.10;4.47;;;;;;;11.77;59.96;100700.91;5021083;28;20045;-52
2023/05/22 02:27:02;;;;;;;9.30;4.80;;;;;;;11.73;60.25;100695.69;5020453;28;20085;-47
2023/05/22 02:29:29;;;;;;;7.88;4.40;;;;;;;11.72;59.82;100702.59;5013428;28;20053;-50
2023/05/22 02:31:56;;;;;;;8.43;4.82;;;;;;;11.69;59.68;100702.63;5014689;28;20049;-47
2023/05/22 02:34:22;;;;;;;8.30;4.32;;;;;;;11.66;60.36;100697.41;5018796;28;20735;-45
2023/05/22 02:36:49;;;;;;;9.82;3.95;;;;;;;11.64;59.87;100699.13;5009454;28;20046;-52
2023/05/22 02:39:18;;;;;;;9.25;4.50;;;;;;;11.60;60.16;100693.06;5016390;28;20050;-49
2023/05/22 02:41:45;;;;;;;9.98;5.07;;;;;;;11.57;60.32;100693.94;5016114;28;20045;-48
2023/05/22 02:44:11;;;;;;;10.63;4.57;;;;;;;11.56;59.33;100697.38;5015825;28;20046;-46
2023/05/22 02:46:38;;;;;;;9.88;4.50;;;;;;;11.54;60.58;100693.91;5020925;28;20037;-46
2023/05/22 02:49:04;;;;;;;11.18;5.82;;;;;;;11.55;59.35;100695.63;5020681;28;20088;-49
2023/05/22 02:51:31;;;;;;;9.10;4.75;;;;;;;11.54;59.96;100693.91;5020830;28;20049;-46
2023/05/22 02:53:58;;;;;;;8.82;4.50;;;;;;;11.54;60.28;100693.91;5016679;28;20053;-46
2023/05/22 02:56:27;;;;;;;7.35;4.22;;;;;;;11.52;61.12;100682.66;5019113;28;20042;-46
2023/05/22 02:58:55;;;;;;;11.82;5.00;;;;;;;11.53;59.90;100687.00;5022131;28;20061;-50
2023/05/22 03:01:22;;;;;;;11.38;5.00;;;;;;;11.55;60.46;100685.25;5021898;28;20062;-46
2023/05/22 03:03:49;;;;;;;10.00;5.20;;;;;;;11.54;61.19;100687.84;5021092;28;20045;-45
2023/05/22 03:06:16;;;;;;;9.93;4.32;;;;;;;11.54;60.63;100691.31;5020715;28;20047;-48
2023/05/22 03:08:43;;;;;;;11.25;5.00;;;;;;;11.53;60.21;100686.13;5006339;28;20049;-49
2023/05/22 03:11:10;;;;;;;9.73;4.18;;;;;;;11.53;61.24;100687.00;5005268;28;20057;-49
2023/05/22 03:13:36;;;;;;;11.57;4.95;;;;;;;11.53;60.45;100681.81;5008914;28;20057;-46
2023/05/22 03:16:03;;;;;;;8.93;5.25;;;;;;;11.53;60.47;100676.63;5007511;28;20049;-48
2023/05/22 03:18:30;;;;;;;8.10;4.50;;;;;;;11.53;60.71;100681.81;5007929;28;20073;-46
2023/05/22 03:20:57;;;;;;;9.15;4.25;;;;;;;11.52;61.14;100669.69;5005074;28;20053;-45
2023/05/22 03:23:24;;;;;;;10.18;4.45;;;;;;;11.52;61.46;100669.69;5005701;28;20046;-47
2023/05/22 03:25:50;;;;;;;7.82;3.67;;;;;;;11.52;60.58;100672.28;4998168;28;20096;-49
2023/05/22 03:28:17;;;;;;;8.13;2.78;;;;;;;11.48;61.61;100667.94;4999389;28;20622;-48
2023/05/22 03:30:43;;;;;;;6.22;3.40;;;;;;;11.49;61.58;100669.69;5001494;28;20050;-49
2023/05/22 03:33:10;;;;;;;7.68;3.95;;;;;;;11.42;61.12;100670.53;4998323;28;20042;-47
2023/05/22 03:35:37;;;;;;;8.18;3.97;;;;;;;11.46;60.87;100664.50;5003542;28;20104;-48
2023/05/22 03:38:04;;;;;;;7.85;4.00;;;;;;;11.46;60.55;100667.09;5006864;28;20493;-46
2023/05/22 03:40:30;;;;;;;6.03;3.30;;;;;;;11.44;60.54;100666.19;5003994;28;20042;-49
2023/05/22 03:42:57;;;;;;;6.78;4.13;;;;;;;11.44;61.34;100667.06;5004753;28;20741;-47
2023/05/22 03:45:23;;;;;;;7.30;3.45;;;;;;;11.42;61.26;100662.75;4999911;28;20060;-47
2023/05/22 03:47:50;;;;;;;8.18;4.13;;;;;;;11.44;61.67;100663.59;4999992;28;20057;-47
2023/05/22 03:50:17;;;;;;;10.13;4.25;;;;;;;11.42;61.20;100658.41;5004964;28;20108;-49
2023/05/22 03:52:44;;;;;;;7.85;3.30;;;;;;;11.43;60.79;100661.88;5000599;28;20053;-49
2023/05/22 03:55:10;;;;;;;8.48;3.85;;;;;;;11.41;61.88;100653.22;5003777;28;20065;-49
2023/05/22 03:57:37;;;;;;;7.10;3.58;;;;;;;11.39;61.44;100653.22;4995158;28;20075;-49
2023/05/22 04:00:08;;;;;;;7.88;4.13;;;;;;;11.40;60.94;100656.69;5001523;28;20054;-47
2023/05/22 04:02:38;;;;;;;12.25;2.22;;;;;;;11.38;60.62;100655.81;5005038;28;20322;-50
2023/05/22 04:05:06;;;;;;;;;;;;;;;11.22;62.16;100660.94;5006866;28;20119;-47
2023/05/22 04:07:33;;;;;;;6.63;4.18;;;;;;;11.34;60.47;100660.13;5004847;28;20012;-49
2023/05/22 04:09:59;;;;;;;7.20;4.57;;;;;;;11.35;61.42;100661.00;5003461;28;20120;-46
2023/05/22 04:12:26;;;;;;;7.45;3.88;;;;;;;11.37;61.01;100665.31;5000603;28;20054;-50
2023/05/22 04:14:53;;;;;;;6.43;3.60;;;;;;;11.34;60.33;100654.09;5000006;28;20491;-46
2023/05/22 04:17:19;;;;;;;8.68;3.92;;;;;;;11.36;59.80;100662.72;4996731;28;20049;-49
2023/05/22 04:19:46;;;;;;;6.95;3.83;;;;;;;11.38;60.55;100671.38;5006305;28;20053;-50
2023/05/22 04:22:13;;;;;;;7.80;3.85;;;;;;;11.39;60.61;100667.91;5000308;28;20046;-50
2023/05/22 04:24:40;;;;;;;6.70;3.42;;;;;;;11.41;60.65;100668.78;4996733;28;20046;-47
2023/05/22 04:27:06;;;;;;;7.53;3.13;;;;;;;11.41;60.43;100661.00;4999991;28;20057;-50
2023/05/22 04:29:35;;;;;;;7.20;4.20;;;;;;;11.45;60.21;100667.94;4999433;28;20049;-48
2023/05/22 04:32:02;;;;;;;7.20;3.55;;;;;;;11.49;59.38;100669.69;5000424;28;20049;-50
2023/05/22 04:34:29;;;;;;;8.13;3.83;;;;;;;11.51;60.49;100680.06;5000585;28;20057;-48
2023/05/22 04:36:55;;;;;;;6.13;3.95;;;;;;;11.53;59.24;100679.22;4996710;28;20121;-49
2023/05/22 04:39:24;;;;;;;6.20;3.20;;;;;;;11.56;60.20;100678.38;5003481;28;20057;-49
2023/05/22 04:41:51;;;;;;;7.43;3.40;;;;;;;11.57;59.84;100683.56;4998417;28;20053;-46
2023/05/22 04:44:21;;;;;;;9.65;4.45;;;;;;;11.56;59.45;100678.38;5002855;28;20058;-46
2023/05/22 04:46:49;;;;;;;;;;;;;;;11.45;59.38;100670.53;5006626;28;20069;-46
2023/05/22 04:49:15;;;;;;;8.00;2.83;;;;;;;11.55;59.25;100667.09;5004274;28;19921;-52
2023/05/22 04:51:42;;;;;;;6.78;3.95;;;;;;;11.56;59.40;100665.38;5005608;28;20050;-51
2023/05/22 04:54:08;;;;;;;7.07;3.30;;;;;;;11.55;59.17;100659.31;5005704;28;20045;-52
2023/05/22 04:56:35;;;;;;;9.98;3.50;;;;;;;11.51;60.09;100662.78;5004500;28;20540;-51
2023/05/22 04:59:04;;;;;;;5.97;3.15;;;;;;;11.55;58.88;100674.88;5005998;28;20050;-50
2023/05/22 05:01:31;;;;;;;11.45;3.72;;;;;;;11.54;59.19;100677.47;5000220;28;20074;-50
2023/05/22 05:03:59;;;;;;;7.10;3.55;;;;;;;11.57;59.39;100680.97;5005641;28;20050;-50
2023/05/22 05:06:26;;;;;;;6.03;3.08;;;;;;;11.60;59.96;100681.81;5007170;28;20054;-47
2023/05/22 05:08:52;;;;;;;7.55;3.72;;;;;;;11.59;59.79;100680.97;5002692;28;20041;-50
2023/05/22 05:11:20;;;;;;;5.97;3.70;;;;;;;11.61;58.86;100683.53;5006409;28;20049;-50
2023/05/22 05:13:47;;;;;;;7.43;4.03;;;;;;;11.61;59.61;100688.72;5006006;28;20053;-50
2023/05/22 05:16:13;;;;;;;7.47;4.15;;;;;;;11.63;58.92;100687.03;5000101;28;20042;-51
2023/05/22 05:18:40;;;;;;;5.97;3.35;;;;;;;11.67;59.24;100683.56;5005020;28;20132;-48
2023/05/22 05:21:07;;;;;;;6.05;3.25;;;;;;;11.70;58.26;100684.47;5000665;28;20053;-50
2023/05/22 05:23:33;;;;;;;6.70;3.17;;;;;;;11.71;59.34;100680.13;4998915;28;20049;-49
2023/05/22 05:26:00;;;;;;;5.95;3.60;;;;;;;11.71;59.34;100685.31;4997433;28;20046;-55
2023/05/22 05:28:27;;;;;;;5.88;3.08;;;;;;;11.71;58.27;100680.13;5003893;28;20060;-52
2023/05/22 05:30:53;;;;;;;5.85;3.22;;;;;;;11.77;58.05;100684.47;5004055;28;20149;-49
2023/05/22 05:33:20;;;;;;;7.15;4.25;;;;;;;11.78;58.48;100679.28;4999612;28;20050;-47
2023/05/22 05:35:49;;;;;;;6.13;2.85;;;;;;;11.78;58.04;100689.66;5000566;28;20050;-50
2023/05/22 05:38:16;;;;;;;9.40;3.20;;;;;;;11.81;58.95;100692.28;5003323;28;20137;-49
2023/05/22 05:40:44;;;;;;;7.10;2.80;;;;;;;11.83;58.89;100690.53;5002604;28;20060;-47
2023/05/22 05:43:13;;;;;;;7.03;3.50;;;;;;;11.86;59.06;100688.81;4998400;28;20101;-48
2023/05/22 05:45:41;;;;;;;6.78;3.67;;;;;;;11.89;57.82;100691.44;5000257;28;20043;-51
2023/05/22 05:48:07;;;;;;;6.18;2.67;;;;;;;11.91;58.40;100697.47;5004346;28;20428;-50
2023/05/22 05:50:34;;;;;;;6.07;3.20;;;;;;;11.93;57.55;100693.16;5000395;28;20058;-53
2023/05/22 05:53:01;;;;;;;6.50;3.42;;;;;;;11.92;57.97;100699.22;4999900;28;20053;-49
2023/05/22 05:55:27;;;;;;;7.03;3.42;;;;;;;11.99;58.23;100695.75;4999168;28;20049;-50
2023/05/22 05:57:54;;;;;;;7.07;3.33;;;;;;;12.05;58.08;100700.97;5000096;28;20054;-52
2023/05/22 06:00:21;;;;;;;6.35;3.53;;;;;;;12.10;57.90;100697.53;5005022;28;20045;-49
2023/05/22 06:02:48;;;;;;;7.03;3.53;;;;;;;12.15;58.48;100696.69;5001212;28;20049;-48
2023/05/22 06:05:17;;;;;;;7.50;3.05;;;;;;;12.18;57.31;100696.69;5002377;28;20045;-52
2023/05/22 06:07:44;;;;;;;8.27;3.92;;;;;;;12.20;57.38;100704.50;5000672;28;20068;-50
2023/05/22 06:10:11;;;;;;;5.53;3.63;;;;;;;12.24;58.22;100700.16;5000490;28;20053;-48
2023/05/22 06:12:39;;;;;;;8.25;4.00;;;;;;;12.29;58.34;100704.47;5004630;28;20545;-49
2023/05/22 06:15:06;;;;;;;8.30;3.75;;;;;;;12.36;58.38;100699.31;4994588;28;20065;-48
2023/05/22 06:17:34;;;;;;;8.88;3.80;;;;;;;12.41;58.15;100707.94;5006659;28;20077;-49
2023/05/22 06:20:00;;;;;;;6.05;3.58;;;;;;;12.44;58.54;100710.56;5001575;28;20049;-52
2023/05/22 06:22:28;;;;;;;7.28;2.88;;;;;;;12.49;57.37;100705.38;4999981;28;20443;-48
2023/05/22 06:24:54;;;;;;;5.47;2.67;;;;;;;12.54;57.23;100703.63;4998852;28;20462;-51
2023/05/22 06:27:22;;;;;;;8.38;3.92;;;;;;;12.59;58.30;100709.69;4998087;28;20046;-46
2023/05/22 06:29:49;;;;;;;8.40;3.55;;;;;;;12.62;58.33;100711.41;4993766;28;20070;-48
2023/05/22 06:32:16;;;;;;;6.35;4.07;;;;;;;12.62;58.28;100706.22;5005913;28;20045;-49
2023/05/22 06:34:45;;;;;;;6.85;3.92;;;;;;;12.61;57.42;100710.56;5002659;28;20058;-49
2023/05/22 06:37:12;;;;;;;12.23;5.03;;;;;;;12.63;58.35;100713.16;5004767;28;20062;-49
2023/05/22 06:39:39;;;;;;;6.57;3.55;;;;;;;12.60;57.29;100709.69;5003380;28;20050;-53
2023/05/22 06:42:06;;;;;;;6.72;3.70;;;;;;;12.63;58.17;100711.41;5002685;28;20076;-50
2023/05/22 06:44:32;;;;;;;7.18;4.18;;;;;;;12.61;57.03;100715.75;5007487;28;20042;-49
2023/05/22 06:46:59;;;;;;;7.50;4.40;;;;;;;12.65;58.10;100711.41;5006468;28;20080;-52
2023/05/22 06:49:26;;;;;;;8.48;4.10;;;;;;;12.65;57.36;100721.81;5002786;28;20108;-51
2023/05/22 06:51:52;;;;;;;6.65;4.18;;;;;;;12.67;58.22;100710.53;5002426;28;20057;-52
2023/05/22 06:54:20;;;;;;;7.22;3.65;;;;;;;12.69;58.40;100702.75;5000503;28;20145;-50
2023/05/22 06:56:46;;;;;;;10.32;4.57;;;;;;;12.72;58.36;100707.94;5002044;28;20065;-51
2023/05/22 06:59:13;;;;;;;6.63;4.28;;;;;;;12.73;58.09;100713.16;5004717;28;20042;-50
2023/05/22 07:01:40;;;;;;;7.30;4.03;;;;;;;12.76;58.53;100714.88;5002147;28;20048;-53
2023/05/22 07:04:07;;;;;;;5.90;4.13;;;;;;;12.79;57.84;100709.66;5004269;28;20049;-51
2023/05/22 07:06:37;;;;;;;9.25;4.57;;;;;;;12.84;57.92;100707.91;5003462;28;20050;-50
2023/05/22 07:09:07;;;;;;;9.52;3.22;;;;;;;12.85;58.14;100717.47;5006263;28;20050;-50
2023/05/22 07:11:34;;;;;;;7.35;3.75;;;;;;;12.89;57.77;100710.53;5005173;28;20638;-50
2023/05/22 07:14:01;;;;;;;11.02;4.78;;;;;;;12.93;58.70;100711.38;5005124;28;20061;-47
2023/05/22 07:16:29;;;;;;;8.07;4.22;;;;;;;12.99;58.35;100716.56;5000692;28;20453;-52
2023/05/22 07:18:56;;;;;;;7.28;4.05;;;;;;;13.02;57.73;100716.56;5006289;28;20053;-48
2023/05/22 07:21:23;;;;;;;7.88;3.58;;;;;;;13.01;57.19;100720.03;5006032;28;20042;-53
2023/05/22 07:23:51;;;;;;;5.93;3.15;;;;;;;13.04;57.18;100722.63;5004730;28;20401;-52
2023/05/22 07:26:18;;;;;;;9.20;4.35;;;;;;;13.06;57.90;100720.88;5001514;28;20045;-50
2023/05/22 07:28:44;;;;;;;8.68;3.20;;;;;;;13.04;57.27;100725.22;5002638;28;20042;-49
2023/05/22 07:31:11;;;;;;;7.25;3.28;;;;;;;13.06;57.07;100713.09;4999053;28;20045;-52
2023/05/22 07:33:37;;;;;;;8.82;4.75;;;;;;;13.10;57.45;100720.00;5004039;28;20060;-51
2023/05/22 07:36:05;;;;;;;5.82;2.45;;;;;;;13.09;56.76;100722.63;5002271;28;20460;-50
2023/05/22 07:38:31;;;;;;;8.68;3.75;;;;;;;13.12;56.99;100722.63;5004676;28;20045;-47
2023/05/22 07:40:58;;;;;;;7.22;4.13;;;;;;;13.19;56.89;100718.25;5002286;28;20710;-52
2023/05/22 07:43:24;;;;;;;9.13;4.10;;;;;;;13.22;57.58;100733.84;5002533;28;20093;-47
2023/05/22 07:45:52;;;;;;;9.65;3.75;;;;;;;13.24;56.72;100732.09;5003365;28;20053;-47
2023/05/22 07:48:19;;;;;;;8.68;4.45;;;;;;;13.30;57.33;100741.63;5003173;28;20125;-49
2023/05/22 07:50:46;;;;;;;8.95;4.35;;;;;;;13.34;57.26;100749.44;5000827;28;20084;-49
2023/05/22 07:53:13;;;;;;;8.60;4.88;;;;;;;13.40;57.09;100748.53;5003734;28;20041;-52
2023/05/22 07:55:41;;;;;;;8.07;4.32;;;;;;;13.45;57.10;100748.53;5003610;28;20056;-48
2023/05/22 07:58:09;;;;;;;11.25;4.57;;;;;;;13.51;57.16;100751.13;4998096;28;20497;-47
2023/05/22 08:00:36;;;;;;;8.90;4.05;;;;;;;13.60;57.16;100751.13;5002368;28;20695;-48
2023/05/22 08:03:03;;;;;;;5.20;2.80;;;;;;;13.66;56.73;100755.44;4998101;28;20427;-51
2023/05/22 08:05:30;;;;;;;7.88;4.00;;;;;;;13.74;56.23;100761.47;5005610;28;20065;-49
2023/05/22 08:07:56;;;;;;;7.65;3.40;;;;;;;13.86;56.93;100762.28;4994680;28;20549;-50
2023/05/22 08:10:23;;;;;;;7.43;3.50;;;;;;;13.96;56.11;100768.31;5004565;28;20042;-51
2023/05/22 08:12:50;;;;;;;5.60;3.10;;;;;;;13.98;55.59;100766.53;4998700;28;20569;-51
2023/05/22 08:15:16;;;;;;;7.22;4.18;;;;;;;14.03;55.46;100770.00;4997081;28;20061;-49
2023/05/22 08:17:43;;;;;;;8.65;4.45;;;;;;;14.07;55.11;100776.94;5001727;28;20075;-49
2023/05/22 08:20:10;;;;;;;6.00;3.47;;;;;;;14.11;54.90;100777.75;5006889;28;20057;-53
2023/05/22 08:22:38;;;;;;;8.27;3.50;;;;;;;14.14;54.78;100783.84;4999478;28;20054;-54
2023/05/22 08:25:05;;;;;;;8.80;3.85;;;;;;;14.18;55.41;100784.66;5003015;28;20074;-50
2023/05/22 08:27:31;;;;;;;7.43;3.60;;;;;;;14.17;54.63;100782.06;4993799;28;20115;-50
2023/05/22 08:29:58;;;;;;;7.28;3.50;;;;;;;14.21;54.99;100789.88;5001800;28;20054;-49
2023/05/22 08:32:25;;;;;;;10.40;3.33;;;;;;;14.21;55.42;100783.78;4998499;28;20050;-50
2023/05/22 08:34:54;;;;;;;10.13;4.18;;;;;;;14.20;54.36;100787.28;5000781;28;20677;-51
2023/05/22 08:37:21;;;;;;;6.43;3.60;;;;;;;14.14;54.42;100782.97;5001162;28;20041;-51
2023/05/22 08:39:47;;;;;;;8.27;3.25;;;;;;;14.09;53.53;100780.38;5003042;28;20057;-48
2023/05/22 08:42:14;;;;;;;8.45;4.00;;;;;;;14.13;54.25;100782.13;4997013;28;20054;-48
2023/05/22 08:44:41;;;;;;;5.05;3.30;;;;;;;14.18;53.77;100779.47;4996941;28;20061;-50
2023/05/22 08:47:10;;;;;;;5.85;3.90;;;;;;;14.21;53.90;100773.38;5000983;28;20046;-50
2023/05/22 08:49:38;;;;;;;10.23;3.28;;;;;;;14.26;54.13;100795.06;4999877;28;20049;-49
2023/05/22 08:52:11;;;;;;;8.00;4.70;;;;;;;14.27;53.18;100794.19;4998703;28;20046;-49
2023/05/22 08:54:42;;;;;;;6.63;4.25;;;;;;;14.37;53.14;100805.41;5001566;28;20045;-51
2023/05/22 08:57:09;;;;;;;5.80;3.45;;;;;;;14.44;53.13;100790.59;4997119;28;20041;-47
2023/05/22 08:59:39;;;;;;;6.90;3.05;;;;;;;14.55;53.53;100798.34;4995147;28;20050;-51
2023/05/22 09:02:08;;;;;;;8.82;3.28;;;;;;;14.63;53.25;100802.59;5000970;28;20069;-51
2023/05/22 09:04:34;;;;;;;5.97;3.47;;;;;;;14.75;53.39;100806.00;5003767;28;20057;-50
2023/05/22 09:07:04;;;;;;;5.93;2.97;;;;;;;14.87;53.27;100805.09;5015109;28;20125;-53
2023/05/22 09:09:35;;;;;;;;;;;;;;;14.95;52.97;100803.28;5003127;28;20045;-49
2023/05/22 09:12:02;;;;;;;8.02;3.00;;;;;;;15.12;52.26;100803.13;5003702;28;19991;-51
2023/05/22 09:14:38;;;;;;;9.15;3.13;;;;;;;15.22;52.02;100798.66;4997821;28;20048;-50
2023/05/22 09:17:05;;;;;;;5.43;3.33;;;;;;;15.33;51.57;100811.59;5014987;28;20049;-52
2023/05/22 09:19:32;;;;;;;7.85;3.65;;;;;;;15.40;51.46;100805.44;5003099;28;20070;-50
2023/05/22 09:22:03;;;;;;;4.50;3.17;;;;;;;15.44;51.26;100805.41;4996886;28;20126;-47
2023/05/22 09:24:36;;;;;;;4.95;3.30;;;;;;;15.48;51.78;100799.28;5004119;28;20049;-52
2023/05/22 09:27:05;;;;;;;5.22;3.28;;;;;;;15.56;51.70;100800.03;4998283;28;20050;-52
2023/05/22 09:29:47;;;;;;;6.22;3.30;;;;;;;15.60;50.66;100800.91;5001817;28;20044;-47
2023/05/22 09:32:15;;;;;;;8.30;2.95;;;;;;;15.67;50.78;100798.19;4999826;28;20054;-55
2023/05/22 09:34:43;;;;;;;9.48;4.05;;;;;;;15.70;51.13;100801.66;5001046;28;20046;-48
2023/05/22 09:37:11;;;;;;;5.78;2.08;;;;;;;15.81;51.21;100805.00;5000977;28;20616;-51
2023/05/22 09:39:42;;;;;;;5.32;2.10;;;;;;;15.93;51.68;100791.78;4998670;28;20472;-57
2023/05/22 09:42:11;;;;;;;6.32;3.33;;;;;;;15.98;50.55;100796.09;5002633;28;20562;-55
2023/05/22 09:44:38;;;;;;;5.57;2.75;;;;;;;16.12;50.76;100804.63;5004204;28;20466;-53
2023/05/22 09:47:05;;;;;;;5.32;3.30;;;;;;;16.21;50.54;100808.00;5001754;28;20042;-51
2023/05/22 09:49:39;;;;;;;5.07;2.92;;;;;;;16.34;50.19;100799.06;5001612;28;20046;-50
2023/05/22 09:52:08;;;;;;;6.95;3.30;;;;;;;16.45;50.29;100807.63;5003499;28;20041;-52
2023/05/22 09:54:42;;;;;;;7.18;3.50;;;;;;;16.51;50.69;100796.19;4986579;28;20141;-52
2023/05/22 09:57:14;;;;;;;8.55;3.28;;;;;;;16.58;48.55;100807.44;4995897;28;20053;-52
2023/05/22 09:59:42;;;;;;;4.68;2.42;;;;;;;16.67;49.15;100801.19;5003384;28;20054;-48
2023/05/22 10:02:11;;;;;;;3.72;2.35;;;;;;;16.76;49.16;100810.66;5001369;28;20050;-49
2023/05/22 10:04:40;;;;;;;5.18;2.20;;;;;;;16.83;48.96;100807.03;5003591;28;20732;-51
2023/05/22 10:07:10;;;;;;;4.13;1.67;;;;;;;16.87;48.14;100794.75;4999455;28;20379;-49
2023/05/22 10:09:39;;;;;;;4.97;2.92;;;;;;;16.91;48.09;100805.16;4998367;28;20053;-50
2023/05/22 10:12:09;;;;;;;6.50;2.83;;;;;;;16.93;48.19;100799.91;5002420;28;20053;-49
2023/05/22 10:14:36;;;;;;;4.78;2.88;;;;;;;17.00;48.14;100798.03;5001023;28;20139;-48
2023/05/22 10:17:05;;;;;;;4.63;2.65;;;;;;;17.04;47.69;100794.47;5001556;28;20132;-53
2023/05/22 10:19:33;;;;;;;4.82;2.47;;;;;;;17.11;47.47;100803.97;5003041;28;20050;-48
2023/05/22 10:22:01;;;;;;;4.57;1.95;;;;;;;17.14;47.78;100796.06;5004954;28;20462;-51
2023/05/22 10:24:28;;;;;;;5.28;3.13;;;;;;;17.23;48.06;100799.41;5007444;28;20057;-49
2023/05/22 10:26:57;;;;;;;4.53;1.90;;;;;;;17.30;47.60;100801.03;5007354;28;20394;-47
2023/05/22 10:29:32;;;;;;;5.43;2.45;;;;;;;17.44;48.21;100804.25;5004222;28;20057;-48
2023/05/22 10:32:24;;;;;;;4.15;2.25;;;;;;;17.46;47.20;100807.69;5006996;28;20504;-49
2023/05/22 10:38:17;;;;;;;4.57;2.10;;;;;;;17.76;47.55;100806.25;5074278;27;20398;-49
2023/05/22 10:40:45;;;;;;;4.20;1.90;;;;;;;17.92;46.95;100810.28;5072477;28;20389;-49
2023/05/22 10:43:12;;;;;;;3.17;1.55;;;;;;;18.08;46.86;100807.31;5080627;28;20052;-47
2023/05/22 10:45:40;;;;;;;2.80;1.60;;;;;;;18.22;45.99;100799.19;5077928;28;20098;-47
2023/05/22 10:48:10;;;;;;;2.90;1.45;;;;;;;18.30;45.29;100796.41;5076840;27;20504;-49
2023/05/22 10:50:38;;;;;;;4.22;1.63;;;;;;;18.46;45.20;100802.13;5079847;28;20059;-47
2023/05/22 10:53:25;;;;;;;6.03;1.75;;;;;;;18.62;45.03;100797.38;5075694;28;20407;-46
2023/05/22 10:55:57;;;;;;;4.95;1.73;;;;;;;18.92;45.04;100797.53;5070792;28;20052;-46
2023/05/22 10:58:28;;;;;;;4.18;2.10;;;;;;;19.13;45.08;100796.13;5059067;28;20605;-48
2023/05/22 11:01:16;;;;;;;4.53;2.03;;;;;;;19.24;42.95;100798.44;5076460;28;20450;-47
2023/05/22 11:06:38;;;;;;;4.47;2.10;;;;;;;19.36;42.66;100796.41;5030746;28;20421;-52
2023/05/22 11:12:27;;;;;;;3.53;2.55;;;;;;;19.56;42.91;100797.59;5041397;28;20398;-49
2023/05/22 11:15:05;;;;;;;6.00;1.55;;;;;;;19.69;42.91;100795.50;5020942;28;20480;-52
2023/05/22 11:17:35;;;;;;;5.00;3.03;;;;;;;19.74;42.39;100790.94;5019377;28;20051;-47
2023/05/22 11:20:21;;;;;;;7.07;2.95;;;;;;;19.85;42.20;100788.00;5026026;28;20081;-53
2023/05/22 11:22:55;;;;;;;5.53;3.13;;;;;;;19.97;41.54;100792.91;5017304;28;20053;-48
2023/05/22 11:25:23;;;;;;;5.18;3.35;;;;;;;20.10;42.29;100796.03;5025968;28;20042;-49
2023/05/22 11:27:51;;;;;;;6.63;3.63;;;;;;;20.24;42.38;100800.88;5013520;28;20125;-48
2023/05/22 11:30:19;;;;;;;5.03;3.10;;;;;;;20.26;42.02;100796.41;5020407;28;20049;-47
2023/05/22 11:32:46;;;;;;;4.85;3.25;;;;;;;20.24;41.90;100798.25;5015800;28;20103;-48
2023/05/22 11:35:15;;;;;;;4.57;3.13;;;;;;;20.28;42.20;100801.63;5009772;28;20050;-52
2023/05/22 11:37:43;;;;;;;4.82;3.63;;;;;;;20.37;42.36;100795.22;5019811;28;20046;-50
2023/05/22 11:40:15;;;;;;;6.13;3.38;;;;;;;20.47;42.06;100791.38;5017084;28;20045;-45
2023/05/22 11:42:41;;;;;;;4.93;2.85;;;;;;;20.59;43.02;100789.25;5014560;28;20138;-50
2023/05/22 11:45:09;;;;;;;5.32;2.92;;;;;;;20.74;42.64;100780.84;5016468;28;20545;-48
2023/05/22 11:47:36;;;;;;;3.78;3.08;;;;;;;20.83;42.67;100784.09;5018474;28;20171;-47
2023/05/22 11:50:05;;;;;;;7.07;3.75;;;;;;;20.83;41.80;100784.94;5017858;28;20061;-47
2023/05/22 11:52:33;;;;;;;4.38;3.20;;;;;;;20.89;41.97;100773.38;5010202;28;20053;-48
2023/05/22 11:55:00;;;;;;;6.43;3.53;;;;;;;20.90;42.04;100782.97;5016068;28;20041;-50